createdAt,value
2019-03-16T00:00:04.570Z,0.2
2019-03-16T00:00:16.326Z,0.2
2019-03-16T00:00:28.122Z,0.2
2019-03-16T00:00:39.863Z,0.2
2019-03-16T00:00:51.615Z,0.2
2019-03-16T00:01:03.367Z,0.2
2019-03-16T00:01:15.136Z,0.2
2019-03-16T00:01:26.907Z,0.2
2019-03-16T00:01:38.687Z,0.2
2019-03-16T00:01:56.848Z,0.2
2019-03-16T00:02:04.130Z,0.2
2019-03-16T00:02:15.870Z,0.2
2019-03-16T00:02:27.653Z,0.2
2019-03-16T00:02:39.431Z,0.2
2019-03-16T00:02:51.178Z,0.1
2019-03-16T00:03:02.941Z,0.1
2019-03-16T00:03:14.702Z,0.1
2019-03-16T00:03:26.456Z,0.1
2019-03-16T00:03:38.225Z,0.1
2019-03-16T00:03:49.974Z,0.2
2019-03-16T00:04:01.743Z,0.2
2019-03-16T00:04:13.504Z,0.3
2019-03-16T00:04:25.272Z,0.2
2019-03-16T00:04:37.010Z,0.2
2019-03-16T00:04:48.778Z,0.2
2019-03-16T00:05:00.513Z,0.2
2019-03-16T00:05:12.286Z,0.2
2019-03-16T00:05:24.052Z,0.2
2019-03-16T00:05:35.827Z,0.2
2019-03-16T00:05:47.578Z,0.2
2019-03-16T00:05:59.350Z,0.2
2019-03-16T00:06:11.151Z,0.1
2019-03-16T00:06:22.900Z,0.1
2019-03-16T00:06:34.678Z,0.1
2019-03-16T00:06:46.421Z,0.1
2019-03-16T00:06:58.169Z,0.1
2019-03-16T00:07:09.942Z,0.2
2019-03-16T00:07:32.368Z,0.2
2019-03-16T00:07:34.418Z,0.2
2019-03-16T00:07:46.188Z,0.2
2019-03-16T00:07:57.939Z,0.4
2019-03-16T00:08:09.675Z,0.4
2019-03-16T00:08:21.491Z,0.3
2019-03-16T00:08:33.240Z,0.2
2019-03-16T00:08:44.992Z,0.2
2019-03-16T00:08:56.788Z,0.2
2019-03-16T00:09:08.683Z,0.2
2019-03-16T00:09:20.457Z,0.1
2019-03-16T00:09:32.214Z,0.1
2019-03-16T00:09:43.998Z,0.2
2019-03-16T00:09:55.754Z,0.2
2019-03-16T00:10:07.494Z,0.2
2019-03-16T00:10:20.264Z,0.2
2019-03-16T00:10:32.016Z,0.3
2019-03-16T00:10:43.756Z,0.3
2019-03-16T00:10:55.536Z,0.2
2019-03-16T00:11:07.278Z,0.2
2019-03-16T00:11:19.017Z,0.1
2019-03-16T00:11:30.782Z,0.1
2019-03-16T00:11:42.612Z,0.1
2019-03-16T00:11:54.435Z,0.1
2019-03-16T00:12:06.067Z,0.1
2019-03-16T00:12:17.807Z,0.1
2019-03-16T00:12:29.574Z,0.2
2019-03-16T00:12:41.349Z,0.2
2019-03-16T00:12:53.077Z,0.3
2019-03-16T00:13:04.858Z,0.3
2019-03-16T00:13:16.631Z,0.3
2019-03-16T00:13:28.464Z,0.3
2019-03-16T00:13:40.169Z,0.2
2019-03-16T00:13:51.976Z,0.2
2019-03-16T00:14:03.887Z,0.2
2019-03-16T00:14:15.677Z,0.1
2019-03-16T00:14:27.430Z,0.1
2019-03-16T00:14:39.184Z,0.1
2019-03-16T00:14:50.927Z,0.1
2019-03-16T00:15:02.692Z,0.1
2019-03-16T00:15:14.454Z,0.2
2019-03-16T00:15:26.224Z,0.2
2019-03-16T00:15:37.987Z,0.3
2019-03-16T00:15:49.750Z,0.3
2019-03-16T00:16:01.497Z,0.2
2019-03-16T00:16:13.253Z,0.1
2019-03-16T00:16:25.013Z,0.1
2019-03-16T00:16:36.765Z,0.1
2019-03-16T00:16:48.509Z,0.1
2019-03-16T00:17:00.256Z,0.1
2019-03-16T00:17:22.849Z,0.1
2019-03-16T00:17:24.744Z,0.1
2019-03-16T00:17:36.521Z,0.1
2019-03-16T00:17:48.307Z,0.1
2019-03-16T00:18:00.061Z,0.2
2019-03-16T00:18:11.849Z,0.2
2019-03-16T00:18:23.605Z,0.2
2019-03-16T00:18:35.351Z,0.2
2019-03-16T00:18:47.082Z,0.2
2019-03-16T00:18:58.823Z,0.2
2019-03-16T00:19:10.637Z,0.1
2019-03-16T00:19:22.423Z,0.1
2019-03-16T00:19:34.176Z,0.1
2019-03-16T00:19:45.946Z,0.1
2019-03-16T00:19:57.685Z,0.1
2019-03-16T00:20:09.431Z,0.1
2019-03-16T00:20:21.190Z,0.1
2019-03-16T00:20:32.960Z,0.1
2019-03-16T00:20:44.738Z,0.5
2019-03-16T00:20:56.495Z,0.6
2019-03-16T00:21:08.249Z,0.5
2019-03-16T00:21:20.022Z,0.2
2019-03-16T00:21:31.772Z,0.2
2019-03-16T00:21:43.518Z,0.3
2019-03-16T00:21:55.301Z,0.3
2019-03-16T00:22:07.094Z,0.2
2019-03-16T00:22:18.895Z,0.2
2019-03-16T00:22:30.655Z,0.2
2019-03-16T00:22:42.413Z,0.2
2019-03-16T00:22:54.209Z,0.5
2019-03-16T00:23:05.947Z,0.5
2019-03-16T00:23:17.725Z,0.2
2019-03-16T00:23:29.485Z,0.1
2019-03-16T00:23:41.251Z,0.2
2019-03-16T00:23:52.999Z,0.3
2019-03-16T00:24:04.813Z,0.2
2019-03-16T00:24:16.626Z,0.2
2019-03-16T00:24:28.405Z,0.3
2019-03-16T00:24:40.162Z,0.3
2019-03-16T00:24:51.907Z,0.2
2019-03-16T00:25:03.673Z,0.1
2019-03-16T00:25:15.416Z,0.1
2019-03-16T00:25:27.158Z,0.1
2019-03-16T00:25:38.930Z,0.2
2019-03-16T00:25:50.699Z,0.2
2019-03-16T00:26:02.471Z,0.3
2019-03-16T00:26:14.236Z,0.2
2019-03-16T00:26:26.111Z,0.2
2019-03-16T00:26:37.787Z,0.2
2019-03-16T00:26:49.564Z,0.2
2019-03-16T00:27:01.301Z,0.2
2019-03-16T00:27:13.078Z,0.3
2019-03-16T00:27:24.839Z,0.5
2019-03-16T00:27:36.630Z,0.5
2019-03-16T00:27:48.396Z,0.2
2019-03-16T00:28:00.184Z,0.1
2019-03-16T00:28:11.933Z,0.1
2019-03-16T00:28:23.698Z,0.1
2019-03-16T00:28:35.463Z,0.1
2019-03-16T00:28:47.222Z,0.1
2019-03-16T00:28:59.004Z,0.4
2019-03-16T00:29:10.788Z,0.4
2019-03-16T00:29:22.550Z,0.2
2019-03-16T00:29:34.311Z,0.1
2019-03-16T00:29:46.099Z,0.3
2019-03-16T00:29:57.846Z,0.3
2019-03-16T00:30:09.620Z,0.3
2019-03-16T00:30:21.379Z,0.1
2019-03-16T00:30:33.184Z,0.1
2019-03-16T00:30:44.955Z,0.3
2019-03-16T00:30:56.732Z,0.3
2019-03-16T00:31:08.492Z,0.3
2019-03-16T00:31:20.237Z,0.1
2019-03-16T00:31:32.009Z,0.1
2019-03-16T00:31:43.782Z,0.1
2019-03-16T00:31:55.537Z,0.1
2019-03-16T00:32:13.106Z,0.1
2019-03-16T00:32:21.016Z,0.1
2019-03-16T00:32:32.759Z,0.1
2019-03-16T00:32:44.689Z,0.1
2019-03-16T00:32:56.302Z,0.1
2019-03-16T00:33:08.063Z,0.1
2019-03-16T00:33:19.859Z,0.2
2019-03-16T00:33:31.606Z,0.4
2019-03-16T00:33:43.404Z,0.3
2019-03-16T00:33:55.162Z,0.2
2019-03-16T00:34:06.913Z,0.1
2019-03-16T00:34:18.706Z,0.2
2019-03-16T00:34:30.493Z,0.2
2019-03-16T00:34:42.261Z,0.2
2019-03-16T00:34:54.005Z,0.2
2019-03-16T00:35:05.911Z,0.2
2019-03-16T00:35:17.661Z,0.2
2019-03-16T00:35:29.438Z,0.2
2019-03-16T00:35:41.226Z,0.1
2019-03-16T00:35:59.023Z,0.1
2019-03-16T00:36:10.787Z,0.1
2019-03-16T00:36:22.569Z,0.1
2019-03-16T00:36:34.320Z,0.1
2019-03-16T00:36:46.095Z,0.1
2019-03-16T00:36:57.853Z,0.1
2019-03-16T00:37:09.611Z,0.1
2019-03-16T00:37:21.380Z,0.1
2019-03-16T00:37:33.149Z,0.2
2019-03-16T00:37:44.897Z,0.2
2019-03-16T00:37:56.661Z,0.1
2019-03-16T00:38:08.416Z,0.1
2019-03-16T00:38:23.312Z,0.2
2019-03-16T00:38:31.916Z,0.2
2019-03-16T00:38:43.686Z,0.2
2019-03-16T00:38:55.449Z,0.2
2019-03-16T00:39:07.201Z,0.2
2019-03-16T00:39:18.974Z,0.2
2019-03-16T00:39:30.716Z,0.2
2019-03-16T00:39:42.492Z,0.1
2019-03-16T00:39:54.250Z,0.1
2019-03-16T00:40:06.050Z,0.1
2019-03-16T00:40:17.808Z,0.1
2019-03-16T00:40:29.606Z,0.1
2019-03-16T00:40:41.377Z,0.1
2019-03-16T00:40:53.137Z,0.1
2019-03-16T00:41:04.975Z,0.3
2019-03-16T00:41:16.924Z,0.3
2019-03-16T00:41:28.726Z,0.1
2019-03-16T00:41:40.503Z,0.2
2019-03-16T00:41:52.259Z,0.2
2019-03-16T00:42:04.025Z,0.2
2019-03-16T00:42:15.794Z,0.2
2019-03-16T00:42:27.540Z,0.2
2019-03-16T00:42:39.294Z,0.1
2019-03-16T00:42:51.044Z,0.2
2019-03-16T00:43:02.800Z,0.2
2019-03-16T00:43:14.562Z,0.2
2019-03-16T00:43:26.317Z,0.2
2019-03-16T00:43:38.059Z,0.2
2019-03-16T00:43:49.811Z,0.1
2019-03-16T00:44:01.569Z,0.1
2019-03-16T00:44:13.332Z,0.1
2019-03-16T00:44:25.084Z,0.1
2019-03-16T00:44:36.863Z,0.1
2019-03-16T00:44:48.607Z,0.1
2019-03-16T00:45:00.532Z,0.1
2019-03-16T00:45:12.102Z,0.1
2019-03-16T00:45:23.922Z,0.1
2019-03-16T00:45:35.676Z,0.1
2019-03-16T00:45:47.470Z,0.2
2019-03-16T00:46:00.230Z,0.2
2019-03-16T00:46:11.982Z,0.2
2019-03-16T00:46:23.745Z,0.2
2019-03-16T00:46:35.512Z,0.1
2019-03-16T00:46:47.278Z,0.1
2019-03-16T00:46:59.029Z,0.3
2019-03-16T00:47:10.787Z,0.2
2019-03-16T00:47:22.580Z,0.1
2019-03-16T00:47:34.356Z,0.1
2019-03-16T00:47:46.118Z,0.1
2019-03-16T00:47:57.884Z,0.1
2019-03-16T00:48:09.676Z,0.1
2019-03-16T00:48:21.414Z,0.2
2019-03-16T00:48:33.177Z,0.1
2019-03-16T00:48:44.950Z,0.1
2019-03-16T00:48:56.702Z,0.1
2019-03-16T00:49:08.491Z,0.1
2019-03-16T00:49:20.264Z,0.1
2019-03-16T00:49:32.001Z,0.1
2019-03-16T00:49:43.771Z,0.1
2019-03-16T00:49:55.550Z,0.1
2019-03-16T00:50:07.314Z,0.1
2019-03-16T00:50:19.064Z,0.1
2019-03-16T00:50:30.953Z,0.1
2019-03-16T00:50:42.690Z,0.1
2019-03-16T00:50:54.475Z,0.1
2019-03-16T00:51:06.240Z,0.1
2019-03-16T00:51:18.004Z,0.1
2019-03-16T00:51:29.760Z,0.1
2019-03-16T00:51:41.530Z,0.1
2019-03-16T00:51:53.279Z,0.1
2019-03-16T00:52:05.053Z,0.1
2019-03-16T00:52:16.849Z,0.2
2019-03-16T00:52:28.619Z,0.2
2019-03-16T00:52:40.381Z,0.1
2019-03-16T00:52:52.155Z,0.1
2019-03-16T00:53:03.896Z,0.1
2019-03-16T00:53:15.657Z,0.2
2019-03-16T00:53:27.412Z,0.2
2019-03-16T00:53:39.177Z,0.3
2019-03-16T00:53:50.943Z,0.3
2019-03-16T00:54:02.704Z,0.2
2019-03-16T00:54:14.498Z,0.2
2019-03-16T00:54:26.248Z,0.3
2019-03-16T00:54:37.998Z,0.2
2019-03-16T00:54:49.744Z,0.1
2019-03-16T00:55:01.516Z,0.1
2019-03-16T00:55:13.276Z,0.1
2019-03-16T00:55:25.065Z,0.1
2019-03-16T00:55:36.861Z,0.1
2019-03-16T00:55:48.631Z,0.2
2019-03-16T00:56:00.383Z,0.2
2019-03-16T00:56:12.159Z,0.3
2019-03-16T00:56:23.923Z,0.4
2019-03-16T00:56:35.679Z,0.2
2019-03-16T00:56:47.482Z,0.2
2019-03-16T00:56:59.219Z,0.3
2019-03-16T00:57:10.971Z,0.3
2019-03-16T00:57:22.709Z,0.3
2019-03-16T00:57:34.457Z,0.2
2019-03-16T00:57:46.217Z,0.2
2019-03-16T00:57:57.985Z,0.2
2019-03-16T00:58:09.756Z,0.2
2019-03-16T00:58:21.537Z,0.1
2019-03-16T00:58:33.279Z,0.1
2019-03-16T00:58:45.062Z,0.8
2019-03-16T00:58:56.815Z,0.8
2019-03-16T00:59:08.569Z,0.2
2019-03-16T00:59:20.330Z,0.2
2019-03-16T00:59:32.093Z,0.2
2019-03-16T00:59:43.845Z,0.1
2019-03-16T00:59:55.626Z,0.1
2019-03-16T01:00:07.357Z,0.2
2019-03-16T01:00:19.092Z,0.1
2019-03-16T01:00:30.907Z,0.1
2019-03-16T01:00:42.691Z,0.1
2019-03-16T01:00:54.448Z,0.1
2019-03-16T01:01:06.265Z,0.1
2019-03-16T01:01:18.004Z,0.1
2019-03-16T01:01:29.814Z,0.1
2019-03-16T01:01:41.564Z,0.2
2019-03-16T01:01:53.327Z,0.2
2019-03-16T01:02:05.101Z,0.1
2019-03-16T01:02:26.361Z,0.1
2019-03-16T01:02:32.657Z,0.1
2019-03-16T01:02:41.369Z,0.2
2019-03-16T01:02:53.137Z,0.3
2019-03-16T01:03:04.925Z,0.3
2019-03-16T01:03:16.681Z,0.2
2019-03-16T01:03:28.435Z,0.1
2019-03-16T01:03:40.211Z,0.1
2019-03-16T01:03:51.972Z,0.1
2019-03-16T01:04:03.724Z,0.1
2019-03-16T01:04:15.495Z,0.1
2019-03-16T01:04:27.254Z,0.1
2019-03-16T01:04:39.017Z,0.1
2019-03-16T01:04:50.778Z,0.2
2019-03-16T01:05:02.529Z,0.2
2019-03-16T01:05:14.289Z,0.2
2019-03-16T01:05:26.065Z,0.1
2019-03-16T01:05:37.822Z,0.1
2019-03-16T01:05:49.612Z,0.1
2019-03-16T01:06:01.385Z,0.1
2019-03-16T01:06:13.144Z,0.1
2019-03-16T01:06:24.925Z,0.1
2019-03-16T01:06:36.687Z,0.2
2019-03-16T01:06:48.444Z,0.2
2019-03-16T01:07:00.265Z,0.1
2019-03-16T01:07:12.028Z,0.1
2019-03-16T01:07:23.774Z,0.1
2019-03-16T01:07:35.551Z,0.1
2019-03-16T01:07:47.374Z,0.1
2019-03-16T01:07:59.082Z,0.2
2019-03-16T01:08:10.846Z,0.1
2019-03-16T01:08:22.574Z,0.2
2019-03-16T01:08:34.349Z,0.4
2019-03-16T01:08:46.138Z,0.5
2019-03-16T01:08:57.896Z,0.5
2019-03-16T01:09:09.675Z,0.1
2019-03-16T01:09:21.414Z,0.2
2019-03-16T01:09:33.172Z,0.3
2019-03-16T01:09:44.910Z,0.2
2019-03-16T01:09:56.667Z,0.2
2019-03-16T01:10:09.400Z,0.2
2019-03-16T01:10:21.152Z,0.2
2019-03-16T01:10:32.928Z,0.2
2019-03-16T01:10:44.680Z,0.3
2019-03-16T01:10:56.438Z,0.3
2019-03-16T01:11:08.209Z,0.2
2019-03-16T01:11:19.986Z,0.1
2019-03-16T01:11:31.738Z,0.1
2019-03-16T01:11:43.498Z,0.2
2019-03-16T01:11:55.290Z,0.2
2019-03-16T01:12:07.036Z,0.2
2019-03-16T01:12:18.778Z,0.2
2019-03-16T01:12:30.569Z,0.2
2019-03-16T01:12:42.328Z,0.5
2019-03-16T01:12:54.119Z,0.4
2019-03-16T01:13:05.851Z,0.4
2019-03-16T01:13:17.604Z,0.1
2019-03-16T01:13:29.366Z,0.2
2019-03-16T01:13:41.137Z,0.3
2019-03-16T01:13:52.896Z,0.3
2019-03-16T01:14:04.649Z,0.3
2019-03-16T01:14:16.425Z,0.2
2019-03-16T01:14:28.197Z,0.2
2019-03-16T01:14:39.979Z,0.2
2019-03-16T01:14:51.726Z,0.2
2019-03-16T01:15:03.474Z,0.1
2019-03-16T01:15:15.237Z,0.1
2019-03-16T01:15:26.969Z,0.1
2019-03-16T01:15:38.734Z,0.1
2019-03-16T01:15:50.484Z,0.2
2019-03-16T01:16:02.283Z,0.3
2019-03-16T01:16:14.017Z,0.2
2019-03-16T01:16:25.767Z,0.2
2019-03-16T01:16:37.539Z,0.2
2019-03-16T01:16:49.288Z,0.1
2019-03-16T01:17:01.072Z,0.3
2019-03-16T01:17:12.825Z,0.3
2019-03-16T01:17:24.591Z,0.3
2019-03-16T01:17:36.337Z,0.3
2019-03-16T01:17:48.160Z,0.2
2019-03-16T01:17:59.906Z,0.2
2019-03-16T01:18:11.674Z,0.2
2019-03-16T01:18:23.431Z,0.2
2019-03-16T01:18:35.206Z,0.3
2019-03-16T01:18:46.967Z,0.3
2019-03-16T01:18:58.739Z,0.4
2019-03-16T01:19:10.489Z,0.1
2019-03-16T01:19:22.247Z,0.1
2019-03-16T01:19:34.034Z,0.1
2019-03-16T01:19:45.794Z,0.1
2019-03-16T01:19:57.570Z,0.2
2019-03-16T01:20:09.358Z,0.2
2019-03-16T01:20:21.141Z,0.2
2019-03-16T01:20:32.921Z,0.1
2019-03-16T01:20:44.694Z,0.2
2019-03-16T01:20:56.447Z,0.2
2019-03-16T01:21:08.218Z,0.1
2019-03-16T01:21:19.949Z,0.1
2019-03-16T01:21:31.717Z,0.2
2019-03-16T01:21:43.456Z,0.2
2019-03-16T01:21:55.202Z,0.2
2019-03-16T01:22:06.986Z,0.2
2019-03-16T01:22:18.747Z,0.2
2019-03-16T01:22:30.506Z,0.2
2019-03-16T01:22:42.291Z,0.2
2019-03-16T01:22:54.177Z,0.1
2019-03-16T01:23:05.917Z,0.1
2019-03-16T01:23:17.990Z,0.1
2019-03-16T01:23:29.433Z,0.1
2019-03-16T01:23:41.231Z,0.1
2019-03-16T01:23:53.034Z,0.1
2019-03-16T01:24:04.800Z,0.2
2019-03-16T01:24:16.586Z,0.2
2019-03-16T01:24:28.366Z,0.2
2019-03-16T01:24:40.216Z,0.2
2019-03-16T01:24:51.906Z,0.2
2019-03-16T01:25:03.679Z,0.2
2019-03-16T01:25:15.530Z,0.2
2019-03-16T01:25:27.170Z,0.1
2019-03-16T01:25:38.925Z,0.1
2019-03-16T01:25:50.664Z,0.1
2019-03-16T01:26:02.432Z,0.1
2019-03-16T01:26:14.202Z,0.1
2019-03-16T01:26:25.994Z,0.1
2019-03-16T01:26:37.766Z,0.1
2019-03-16T01:26:49.528Z,0.2
2019-03-16T01:27:01.269Z,0.2
2019-03-16T01:27:13.053Z,0.2
2019-03-16T01:27:24.830Z,0.2
2019-03-16T01:27:36.579Z,0.2
2019-03-16T01:27:48.370Z,0.2
2019-03-16T01:28:00.154Z,0.1
2019-03-16T01:28:12.923Z,0.1
2019-03-16T01:28:24.683Z,0.1
2019-03-16T01:28:36.467Z,0.2
2019-03-16T01:28:48.198Z,0.2
2019-03-16T01:28:59.973Z,0.1
2019-03-16T01:29:11.718Z,0.2
2019-03-16T01:29:23.475Z,0.2
2019-03-16T01:29:35.215Z,0.2
2019-03-16T01:29:47.005Z,0.2
2019-03-16T01:29:58.753Z,0.1
2019-03-16T01:30:10.523Z,0.2
2019-03-16T01:30:22.295Z,0.2
2019-03-16T01:30:34.084Z,0.1
2019-03-16T01:30:45.828Z,0.1
2019-03-16T01:30:57.610Z,0.1
2019-03-16T01:31:09.386Z,0.1
2019-03-16T01:31:21.134Z,0.1
2019-03-16T01:31:32.871Z,0.1
2019-03-16T01:31:44.661Z,0.2
2019-03-16T01:31:56.412Z,0.2
2019-03-16T01:32:08.165Z,0.1
2019-03-16T01:32:19.935Z,0.1
2019-03-16T01:32:40.336Z,0.2
2019-03-16T01:32:44.386Z,0.2
2019-03-16T01:32:56.129Z,0.4
2019-03-16T01:33:07.943Z,0.3
2019-03-16T01:33:19.686Z,0.3
2019-03-16T01:33:31.456Z,0.1
2019-03-16T01:33:43.222Z,0.1
2019-03-16T01:33:54.975Z,0.1
2019-03-16T01:34:06.750Z,0.1
2019-03-16T01:34:18.547Z,0.1
2019-03-16T01:34:30.316Z,0.1
2019-03-16T01:34:44.127Z,0.1
2019-03-16T01:34:53.879Z,0.1
2019-03-16T01:35:05.650Z,0.2
2019-03-16T01:35:17.415Z,0.2
2019-03-16T01:35:29.181Z,0.2
2019-03-16T01:35:40.946Z,0.2
2019-03-16T01:35:52.717Z,0.2
2019-03-16T01:36:04.498Z,0.1
2019-03-16T01:36:16.268Z,0.1
2019-03-16T01:36:28.020Z,0.1
2019-03-16T01:36:39.793Z,0.1
2019-03-16T01:36:51.564Z,0.1
2019-03-16T01:37:03.331Z,0.2
2019-03-16T01:37:15.076Z,0.1
2019-03-16T01:37:26.862Z,0.1
2019-03-16T01:37:38.630Z,0.3
2019-03-16T01:37:50.379Z,0.6
2019-03-16T01:38:02.167Z,0.6
2019-03-16T01:38:13.905Z,0.4
2019-03-16T01:38:25.666Z,0.4
2019-03-16T01:38:37.400Z,0.7
2019-03-16T01:38:49.179Z,0.5
2019-03-16T01:39:00.898Z,0.4
2019-03-16T01:39:12.635Z,0.1
2019-03-16T01:39:24.432Z,0.1
2019-03-16T01:39:36.192Z,0.2
2019-03-16T01:39:47.970Z,0.2
2019-03-16T01:39:59.736Z,0.1
2019-03-16T01:40:11.524Z,0.1
2019-03-16T01:40:23.286Z,0.1
2019-03-16T01:40:35.070Z,0.1
2019-03-16T01:40:46.833Z,0.1
2019-03-16T01:40:58.590Z,0.2
2019-03-16T01:41:10.353Z,0.2
2019-03-16T01:41:22.092Z,0.1
2019-03-16T01:41:33.849Z,0.1
2019-03-16T01:41:45.646Z,0.1
2019-03-16T01:41:57.412Z,0.5
2019-03-16T01:42:09.129Z,0.5
2019-03-16T01:42:20.899Z,0.1
2019-03-16T01:42:32.674Z,0.2
2019-03-16T01:42:44.425Z,0.1
2019-03-16T01:42:56.202Z,0.1
2019-03-16T01:43:07.940Z,0.1
2019-03-16T01:43:19.713Z,0.1
2019-03-16T01:43:31.475Z,0.1
2019-03-16T01:43:43.236Z,0.1
2019-03-16T01:43:55.152Z,0.2
2019-03-16T01:44:06.904Z,0.1
2019-03-16T01:44:18.655Z,0.1
2019-03-16T01:44:30.422Z,0.2
2019-03-16T01:44:42.159Z,0.2
2019-03-16T01:44:53.939Z,0.1
2019-03-16T01:45:05.736Z,0.1
2019-03-16T01:45:17.542Z,0.1
2019-03-16T01:45:29.269Z,0.1
2019-03-16T01:45:41.041Z,0.1
2019-03-16T01:45:53.796Z,0.6
2019-03-16T01:46:05.566Z,0.5
2019-03-16T01:46:17.332Z,0.1
2019-03-16T01:46:29.092Z,0.2
2019-03-16T01:46:40.848Z,0.1
2019-03-16T01:46:52.599Z,0.2
2019-03-16T01:47:04.342Z,0.2
2019-03-16T01:47:16.097Z,0.2
2019-03-16T01:47:27.870Z,0.1
2019-03-16T01:47:39.630Z,0.2
2019-03-16T01:47:51.384Z,0.2
2019-03-16T01:48:03.166Z,0.1
2019-03-16T01:48:14.897Z,0.1
2019-03-16T01:48:26.681Z,0.1
2019-03-16T01:48:38.453Z,0.2
2019-03-16T01:48:50.226Z,0.4
2019-03-16T01:49:02.000Z,0.3
2019-03-16T01:49:13.764Z,0.1
2019-03-16T01:49:25.519Z,0.2
2019-03-16T01:49:37.282Z,0.2
2019-03-16T01:49:50.049Z,0.1
2019-03-16T01:50:01.803Z,0.8
2019-03-16T01:50:13.592Z,0.8
2019-03-16T01:50:25.349Z,0.7
2019-03-16T01:50:37.131Z,0.1
2019-03-16T01:50:48.875Z,0.1
2019-03-16T01:51:00.675Z,0.1
2019-03-16T01:51:12.404Z,0.1
2019-03-16T01:51:24.185Z,0.1
2019-03-16T01:51:35.922Z,0.1
2019-03-16T01:51:47.732Z,0.1
2019-03-16T01:51:59.492Z,0.4
2019-03-16T01:52:11.253Z,0.5
2019-03-16T01:52:23.012Z,0.2
2019-03-16T01:52:34.771Z,0.2
2019-03-16T01:52:46.547Z,0.2
2019-03-16T01:52:58.296Z,0.3
2019-03-16T01:53:10.031Z,0.3
2019-03-16T01:53:21.790Z,0.3
2019-03-16T01:53:33.622Z,0.2
2019-03-16T01:53:45.381Z,0.2
2019-03-16T01:53:57.134Z,0.1
2019-03-16T01:54:08.880Z,0.1
2019-03-16T01:54:20.640Z,0.1
2019-03-16T01:54:32.406Z,0.1
2019-03-16T01:54:44.149Z,0.1
2019-03-16T01:54:55.927Z,0.1
2019-03-16T01:55:07.683Z,0.2
2019-03-16T01:55:19.600Z,0.2
2019-03-16T01:55:31.376Z,0.2
2019-03-16T01:55:43.112Z,0.2
2019-03-16T01:55:54.860Z,0.2
2019-03-16T01:56:06.644Z,0.3
2019-03-16T01:56:18.405Z,0.3
2019-03-16T01:56:30.149Z,0.2
2019-03-16T01:56:42.922Z,0.2
2019-03-16T01:56:54.690Z,0.2
2019-03-16T01:57:06.468Z,0.1
2019-03-16T01:57:18.252Z,0.2
2019-03-16T01:57:30.024Z,0.2
2019-03-16T01:57:41.802Z,0.2
2019-03-16T01:57:53.543Z,0.1
2019-03-16T01:58:05.319Z,0.2
2019-03-16T01:58:17.084Z,0.4
2019-03-16T01:58:28.812Z,0.6
2019-03-16T01:58:40.598Z,0.6
2019-03-16T01:58:52.357Z,0.1
2019-03-16T01:59:04.132Z,0.1
2019-03-16T01:59:15.893Z,0.1
2019-03-16T01:59:27.653Z,0.1
2019-03-16T01:59:39.511Z,0.1
2019-03-16T01:59:51.197Z,0.1
2019-03-16T02:00:02.956Z,0.1
2019-03-16T02:00:14.772Z,0.2
2019-03-16T02:00:26.524Z,0.2
2019-03-16T02:00:38.284Z,0.2
2019-03-16T02:00:50.057Z,0.2
2019-03-16T02:01:01.819Z,0.2
2019-03-16T02:01:13.667Z,0.3
2019-03-16T02:01:25.364Z,0.2
2019-03-16T02:01:37.101Z,0.2
2019-03-16T02:01:49.414Z,0.3
2019-03-16T02:02:00.656Z,0.3
2019-03-16T02:02:12.469Z,0.3
2019-03-16T02:02:24.238Z,0.1
2019-03-16T02:02:36.009Z,0.1
2019-03-16T02:02:55.270Z,0.2
2019-03-16T02:03:01.441Z,0.3
2019-03-16T02:03:13.209Z,0.3
2019-03-16T02:03:25.958Z,0.2
2019-03-16T02:03:37.736Z,0.2
2019-03-16T02:03:49.539Z,0.2
2019-03-16T02:04:01.292Z,0.3
2019-03-16T02:04:13.039Z,0.3
2019-03-16T02:04:24.785Z,0.3
2019-03-16T02:04:36.561Z,0.2
2019-03-16T02:04:48.334Z,0.2
2019-03-16T02:05:00.163Z,0.1
2019-03-16T02:05:11.870Z,0.5
2019-03-16T02:05:23.675Z,0.5
2019-03-16T02:05:35.440Z,0.3
2019-03-16T02:05:47.241Z,0.3
2019-03-16T02:05:58.991Z,0.3
2019-03-16T02:06:10.730Z,0.3
2019-03-16T02:06:22.474Z,0.4
2019-03-16T02:06:34.230Z,0.5
2019-03-16T02:06:45.999Z,0.6
2019-03-16T02:06:57.765Z,0.2
2019-03-16T02:07:09.549Z,0.4
2019-03-16T02:07:21.317Z,0.3
2019-03-16T02:07:33.062Z,0.3
2019-03-16T02:07:44.811Z,0.1
2019-03-16T02:07:56.558Z,0.1
2019-03-16T02:08:08.323Z,0.1
2019-03-16T02:08:20.090Z,0.1
2019-03-16T02:08:31.835Z,0.1
2019-03-16T02:08:43.605Z,0.2
2019-03-16T02:08:55.382Z,0.3
2019-03-16T02:09:07.137Z,0.4
2019-03-16T02:09:18.895Z,0.3
2019-03-16T02:09:30.638Z,0.2
2019-03-16T02:09:42.420Z,0.1
2019-03-16T02:09:54.180Z,0.1
2019-03-16T02:10:05.959Z,0.1
2019-03-16T02:10:17.733Z,0.4
2019-03-16T02:10:29.486Z,0.5
2019-03-16T02:10:41.231Z,0.8
2019-03-16T02:10:52.978Z,0.6
2019-03-16T02:11:04.714Z,0.3
2019-03-16T02:11:16.475Z,0.2
2019-03-16T02:11:28.234Z,0.4
2019-03-16T02:11:39.968Z,0.4
2019-03-16T02:11:51.742Z,0.1
2019-03-16T02:12:03.491Z,0.6
2019-03-16T02:12:15.260Z,0.7
2019-03-16T02:12:27.002Z,1
2019-03-16T02:12:38.775Z,0.7
2019-03-16T02:12:50.562Z,0.8
2019-03-16T02:13:02.348Z,0.7
2019-03-16T02:13:14.116Z,0.6
2019-03-16T02:13:25.882Z,0.4
2019-03-16T02:13:37.618Z,0.1
2019-03-16T02:13:49.362Z,0.3
2019-03-16T02:14:01.122Z,0.4
2019-03-16T02:14:12.864Z,0.4
2019-03-16T02:14:24.612Z,0.2
2019-03-16T02:14:36.416Z,0.2
2019-03-16T02:14:48.169Z,0.1
2019-03-16T02:14:59.929Z,0.1
2019-03-16T02:15:11.701Z,0.2
2019-03-16T02:15:23.479Z,0.2
2019-03-16T02:15:35.267Z,0.2
2019-03-16T02:15:47.045Z,0.2
2019-03-16T02:16:10.192Z,0.2
2019-03-16T02:16:11.726Z,0.2
2019-03-16T02:16:23.246Z,0.3
2019-03-16T02:16:35.023Z,0.5
2019-03-16T02:16:46.790Z,0.4
2019-03-16T02:16:58.584Z,0.2
2019-03-16T02:17:10.369Z,0.2
2019-03-16T02:17:22.147Z,0.4
2019-03-16T02:17:33.943Z,0.3
2019-03-16T02:17:45.715Z,0.3
2019-03-16T02:17:57.478Z,0.2
2019-03-16T02:18:09.289Z,0.3
2019-03-16T02:18:21.052Z,0.3
2019-03-16T02:18:32.856Z,0.3
2019-03-16T02:18:44.598Z,0.3
2019-03-16T02:18:56.328Z,0.3
2019-03-16T02:19:08.095Z,0.2
2019-03-16T02:19:19.830Z,0.2
2019-03-16T02:19:31.562Z,0.4
2019-03-16T02:19:43.301Z,0.5
2019-03-16T02:19:55.059Z,0.4
2019-03-16T02:20:06.819Z,0.1
2019-03-16T02:20:18.580Z,0.2
2019-03-16T02:20:30.332Z,0.2
2019-03-16T02:20:42.091Z,0.2
2019-03-16T02:20:53.866Z,0.2
2019-03-16T02:21:05.643Z,0.1
2019-03-16T02:21:17.397Z,0.1
2019-03-16T02:21:29.188Z,0.1
2019-03-16T02:21:41.013Z,0.2
2019-03-16T02:21:52.746Z,0.1
2019-03-16T02:22:04.430Z,0.1
2019-03-16T02:22:16.183Z,0.2
2019-03-16T02:22:27.955Z,0.2
2019-03-16T02:22:39.696Z,0.1
2019-03-16T02:22:51.462Z,0.1
2019-03-16T02:23:03.210Z,0.1
2019-03-16T02:23:15.012Z,0.1
2019-03-16T02:23:26.761Z,0.2
2019-03-16T02:23:38.504Z,0.2
2019-03-16T02:23:50.252Z,0.2
2019-03-16T02:24:02.005Z,0.2
2019-03-16T02:24:13.774Z,0.4
2019-03-16T02:24:25.524Z,0.4
2019-03-16T02:24:37.271Z,0.1
2019-03-16T02:24:49.034Z,0.2
2019-03-16T02:25:00.815Z,0.2
2019-03-16T02:25:12.569Z,0.1
2019-03-16T02:25:24.337Z,0.2
2019-03-16T02:25:36.117Z,0.2
2019-03-16T02:25:47.902Z,0.1
2019-03-16T02:25:59.669Z,0.1
2019-03-16T02:26:11.431Z,0.1
2019-03-16T02:26:23.181Z,0.1
2019-03-16T02:26:34.925Z,0.1
2019-03-16T02:26:46.666Z,0.1
2019-03-16T02:26:58.408Z,0.1
2019-03-16T02:27:10.159Z,0.1
2019-03-16T02:27:21.923Z,0.1
2019-03-16T02:27:33.683Z,0.1
2019-03-16T02:27:45.419Z,0.1
2019-03-16T02:27:57.159Z,0.1
2019-03-16T02:28:08.940Z,0.2
2019-03-16T02:28:20.707Z,0.2
2019-03-16T02:28:32.474Z,0.1
2019-03-16T02:28:44.305Z,0.1
2019-03-16T02:28:56.063Z,0.2
2019-03-16T02:29:07.831Z,0.2
2019-03-16T02:29:19.581Z,0.1
2019-03-16T02:29:31.361Z,0.1
2019-03-16T02:29:43.118Z,0.2
2019-03-16T02:29:54.911Z,0.2
2019-03-16T02:30:06.698Z,0.2
2019-03-16T02:30:18.441Z,0.1
2019-03-16T02:30:30.190Z,0.1
2019-03-16T02:30:41.937Z,0.2
2019-03-16T02:30:53.703Z,0.1
2019-03-16T02:31:05.487Z,0.1
2019-03-16T02:31:17.277Z,0.2
2019-03-16T02:31:29.003Z,0.2
2019-03-16T02:31:40.780Z,0.2
2019-03-16T02:31:52.523Z,0.1
2019-03-16T02:32:04.269Z,0.2
2019-03-16T02:32:16.054Z,0.1
2019-03-16T02:32:27.798Z,0.1
2019-03-16T02:32:39.558Z,0.1
2019-03-16T02:32:51.303Z,0.1
2019-03-16T02:33:12.164Z,0.1
2019-03-16T02:33:16.794Z,0.1
2019-03-16T02:33:28.540Z,0.1
2019-03-16T02:33:40.272Z,0.1
2019-03-16T02:33:52.189Z,0.1
2019-03-16T02:34:03.954Z,0.1
2019-03-16T02:34:15.757Z,0.1
2019-03-16T02:34:27.516Z,0.2
2019-03-16T02:34:39.259Z,0.2
2019-03-16T02:34:51.035Z,0.2
2019-03-16T02:35:02.793Z,0.2
2019-03-16T02:35:14.537Z,0.1
2019-03-16T02:35:26.329Z,0.1
2019-03-16T02:35:38.071Z,0.1
2019-03-16T02:35:49.840Z,0.1
2019-03-16T02:36:01.579Z,0.1
2019-03-16T02:36:13.366Z,0.1
2019-03-16T02:36:25.146Z,0.2
2019-03-16T02:36:36.893Z,0.2
2019-03-16T02:36:48.647Z,0.1
2019-03-16T02:37:00.440Z,0.2
2019-03-16T02:37:12.215Z,0.2
2019-03-16T02:37:23.967Z,0.1
2019-03-16T02:37:35.721Z,0.1
2019-03-16T02:37:47.496Z,0.1
2019-03-16T02:37:59.265Z,0.1
2019-03-16T02:38:11.013Z,0.1
2019-03-16T02:38:22.770Z,0.1
2019-03-16T02:38:34.529Z,0.1
2019-03-16T02:38:46.317Z,0.2
2019-03-16T02:38:58.086Z,0.2
2019-03-16T02:39:09.821Z,0.2
2019-03-16T02:39:21.567Z,0.1
2019-03-16T02:39:33.320Z,0.1
2019-03-16T02:39:45.125Z,0.1
2019-03-16T02:39:56.864Z,0.1
2019-03-16T02:40:08.616Z,0.3
2019-03-16T02:40:20.384Z,0.3
2019-03-16T02:40:32.165Z,0.1
2019-03-16T02:40:44.000Z,0.1
2019-03-16T02:40:55.670Z,0.1
2019-03-16T02:41:07.428Z,0.1
2019-03-16T02:41:19.199Z,0.1
2019-03-16T02:41:30.951Z,0.2
2019-03-16T02:41:42.683Z,0.2
2019-03-16T02:41:54.441Z,0.2
2019-03-16T02:42:06.213Z,0.2
2019-03-16T02:42:18.009Z,0.2
2019-03-16T02:42:29.765Z,0.1